createdAt,value
2022-09-22T00:01:25.980Z,13.39
2022-09-22T00:03:56.772Z,13.40
2022-09-22T00:06:26.743Z,13.36
2022-09-22T00:09:00.419Z,13.32
2022-09-22T00:11:29.402Z,13.27
2022-09-22T00:13:58.915Z,13.29
2022-09-22T00:16:28.409Z,13.25
2022-09-22T00:18:56.435Z,13.26
2022-09-22T00:21:27.654Z,13.10
2022-09-22T00:23:55.634Z,13.18
2022-09-22T00:26:24.005Z,13.15
2022-09-22T00:28:52.680Z,13.11
2022-09-22T00:31:21.649Z,13.10
2022-09-22T00:33:49.482Z,12.70
2022-09-22T00:36:18.053Z,12.77
2022-09-22T00:38:47.106Z,12.77
2022-09-22T00:41:18.014Z,12.97
2022-09-22T00:43:48.087Z,12.95
2022-09-22T00:46:17.879Z,12.91
2022-09-22T00:48:47.084Z,12.93
2022-09-22T00:51:15.908Z,12.89
2022-09-22T00:53:43.557Z,12.90
2022-09-22T00:56:13.893Z,12.85
2022-09-22T00:58:42.796Z,12.88
2022-09-22T01:01:10.652Z,12.87
2022-09-22T01:03:39.138Z,12.84
2022-09-22T01:06:09.325Z,12.80
2022-09-22T01:08:37.473Z,12.81
2022-09-22T01:11:06.396Z,12.77
2022-09-22T01:13:40.184Z,12.61
2022-09-22T01:16:30.443Z,12.71
2022-09-22T01:19:06.482Z,12.60
2022-09-22T01:21:38.337Z,12.70
2022-09-22T01:24:54.971Z,12.74
2022-09-22T01:27:44.043Z,12.24
2022-09-22T01:30:32.238Z,12.65
2022-09-22T01:33:12.540Z,12.52
2022-09-22T01:35:45.251Z,12.67
2022-09-22T01:38:15.021Z,12.46
2022-09-22T01:40:44.220Z,12.47
2022-09-22T01:43:15.690Z,12.66
2022-09-22T01:45:45.062Z,12.39
2022-09-22T01:48:14.335Z,12.63
2022-09-22T01:50:44.268Z,12.60
2022-09-22T01:53:13.968Z,12.60
2022-09-22T01:55:42.539Z,12.59
2022-09-22T01:58:12.687Z,12.57
2022-09-22T02:00:42.661Z,12.38
2022-09-22T02:03:12.627Z,12.35
2022-09-22T02:05:41.682Z,12.18
2022-09-22T02:08:12.956Z,12.49
2022-09-22T02:10:42.084Z,12.44
2022-09-22T02:13:09.789Z,12.47
2022-09-22T02:15:55.334Z,12.46
2022-09-22T02:18:26.388Z,12.42
2022-09-22T02:20:54.321Z,12.42
2022-09-22T02:23:22.059Z,12.41
2022-09-22T02:25:50.006Z,12.41
2022-09-22T02:28:18.556Z,12.40
2022-09-22T02:31:04.419Z,12.40
2022-09-22T02:33:38.344Z,12.34
2022-09-22T02:36:15.145Z,12.34
2022-09-22T02:38:45.905Z,12.35
2022-09-22T02:41:18.633Z,12.34
2022-09-22T02:43:48.875Z,12.30
2022-09-22T02:46:19.776Z,12.23
2022-09-22T02:48:49.884Z,12.14
2022-09-22T02:51:18.361Z,12.20
2022-09-22T02:53:46.171Z,11.84
2022-09-22T02:56:13.834Z,12.03
2022-09-22T02:58:41.612Z,11.89
2022-09-22T03:01:09.303Z,12.15
2022-09-22T03:03:37.174Z,12.17
2022-09-22T03:06:06.452Z,12.11
2022-09-22T03:08:34.246Z,12.13
2022-09-22T03:11:01.836Z,12.10
2022-09-22T03:13:29.661Z,12.05
2022-09-22T03:15:57.398Z,12.04
2022-09-22T03:18:25.209Z,12.02
2022-09-22T03:20:52.834Z,12.00
2022-09-22T03:23:21.982Z,11.93
2022-09-22T03:25:49.606Z,11.92
2022-09-22T03:28:17.328Z,11.96
2022-09-22T03:30:44.995Z,11.95
2022-09-22T03:33:12.938Z,11.78
2022-09-22T03:35:41.203Z,11.91
2022-09-22T03:38:09.025Z,11.89
2022-09-22T03:40:38.050Z,11.86
2022-09-22T03:43:05.786Z,11.85
2022-09-22T03:45:35.724Z,11.79
2022-09-22T03:48:03.633Z,11.81
2022-09-22T03:50:31.253Z,11.73
2022-09-22T03:52:58.927Z,11.78
2022-09-22T03:55:26.711Z,11.52
2022-09-22T03:57:57.651Z,11.72
2022-09-22T04:00:25.334Z,11.74
2022-09-22T04:02:52.998Z,11.67
2022-09-22T04:05:20.899Z,11.74
2022-09-22T04:07:48.524Z,11.73
2022-09-22T04:10:16.451Z,11.70
2022-09-22T04:12:44.154Z,11.61
2022-09-22T04:15:13.550Z,11.63
2022-09-22T04:17:41.348Z,11.64
2022-09-22T04:20:12.442Z,11.65
2022-09-22T04:22:40.098Z,11.64
2022-09-22T04:25:09.443Z,11.62
2022-09-22T04:27:37.249Z,11.61
2022-09-22T04:30:05.901Z,11.60
2022-09-22T04:32:34.868Z,11.57
2022-09-22T04:35:02.664Z,11.58
2022-09-22T04:37:30.263Z,11.58
2022-09-22T04:40:00.201Z,11.51
2022-09-22T04:42:27.899Z,11.53
2022-09-22T04:44:57.115Z,11.53
2022-09-22T04:47:24.727Z,11.53
2022-09-22T04:49:53.838Z,11.47
2022-09-22T04:52:21.552Z,11.50
2022-09-22T04:57:31.347Z,11.25
2022-09-22T04:59:58.972Z,11.47
2022-09-22T05:02:26.677Z,11.45
2022-09-22T05:04:55.625Z,11.43
2022-09-22T05:07:23.591Z,11.24
2022-09-22T05:09:51.193Z,11.21
2022-09-22T05:12:21.257Z,11.41
2022-09-22T05:14:48.947Z,11.20
2022-09-22T05:17:16.696Z,11.41
2022-09-22T05:19:45.178Z,11.41
2022-09-22T05:22:14.478Z,11.39
2022-09-22T05:24:42.490Z,11.39
2022-09-22T05:27:10.247Z,11.40
2022-09-22T05:29:38.027Z,11.31
2022-09-22T05:32:06.072Z,11.43
2022-09-22T05:34:33.707Z,11.44
2022-09-22T05:37:01.370Z,11.43
2022-09-22T05:39:30.935Z,11.44
2022-09-22T05:41:58.627Z,11.44
2022-09-22T05:44:26.221Z,11.42
2022-09-22T05:46:53.902Z,11.50
2022-09-22T05:49:21.556Z,11.46
2022-09-22T05:51:52.086Z,11.55
2022-09-22T05:54:23.228Z,11.61
2022-09-22T05:56:52.536Z,11.53
2022-09-22T05:59:20.385Z,11.67
2022-09-22T06:01:48.411Z,11.71
2022-09-22T06:04:16.311Z,11.77
2022-09-22T06:06:44.019Z,11.84
2022-09-22T06:09:11.742Z,11.92
2022-09-22T06:11:39.387Z,12.08
2022-09-22T06:14:09.610Z,12.50
2022-09-22T06:16:37.395Z,13.04
2022-09-22T06:19:05.685Z,13.54
2022-09-22T06:21:33.608Z,14.10
2022-09-22T06:24:01.329Z,14.61
2022-09-22T06:26:29.016Z,14.98
2022-09-22T06:28:56.871Z,15.45
2022-09-22T06:31:25.981Z,15.95
2022-09-22T06:33:54.531Z,16.37
2022-09-22T06:36:31.404Z,16.86
2022-09-22T06:38:59.697Z,17.38
2022-09-22T06:41:27.820Z,17.82
2022-09-22T06:43:56.177Z,18.25
2022-09-22T06:46:26.128Z,18.69
2022-09-22T06:48:57.531Z,19.18
2022-09-22T06:51:26.717Z,19.63
2022-09-22T06:53:55.373Z,20.06
2022-09-22T06:56:24.889Z,20.34
2022-09-22T06:59:09.266Z,20.79
2022-09-22T07:01:39.888Z,21.17
2022-09-22T07:04:07.993Z,21.64
2022-09-22T07:06:37.100Z,21.94
2022-09-22T07:09:05.159Z,22.31
2022-09-22T07:11:37.439Z,22.66
2022-09-22T07:14:08.325Z,23.01
2022-09-22T07:16:37.447Z,23.28
2022-09-22T07:19:06.638Z,23.54
2022-09-22T07:21:36.444Z,23.75
2022-09-22T07:24:04.546Z,23.94
2022-09-22T07:26:33.281Z,24.08
2022-09-22T07:29:02.112Z,24.37
2022-09-22T07:31:31.913Z,24.73
2022-09-22T07:34:00.411Z,25.13
2022-09-22T07:36:30.483Z,25.49
2022-09-22T07:38:59.285Z,25.92
2022-09-22T07:41:28.327Z,26.29
2022-09-22T07:43:57.161Z,26.80
2022-09-22T07:46:25.851Z,27.24
2022-09-22T07:48:53.467Z,27.75
2022-09-22T07:51:21.850Z,28.14
2022-09-22T07:53:53.611Z,28.62
2022-09-22T07:56:23.828Z,29.08
2022-09-22T07:58:52.340Z,29.46
2022-09-22T08:01:20.411Z,29.90
2022-09-22T08:03:48.072Z,30.27
2022-09-22T08:06:18.262Z,30.64
2022-09-22T08:08:48.260Z,31.13
2022-09-22T08:11:18.319Z,31.52
2022-09-22T08:13:50.123Z,31.94
2022-09-22T08:16:18.712Z,32.40
2022-09-22T08:18:50.148Z,32.73
2022-09-22T08:21:19.186Z,33.11
2022-09-22T08:23:46.887Z,33.48
2022-09-22T08:26:14.664Z,33.86
2022-09-22T08:28:43.816Z,34.22
2022-09-22T08:31:12.881Z,34.64
2022-09-22T08:33:40.680Z,35.08
2022-09-22T08:36:08.545Z,35.22
2022-09-22T08:38:37.898Z,35.63
2022-09-22T08:41:17.537Z,36.36
2022-09-22T08:44:15.868Z,36.83
2022-09-22T08:46:44.455Z,37.24
2022-09-22T08:49:34.057Z,37.45
2022-09-22T08:52:04.744Z,37.52
2022-09-22T08:54:33.764Z,37.93
2022-09-22T08:57:36.421Z,38.28
2022-09-22T09:00:07.156Z,38.64
2022-09-22T09:02:40.032Z,38.96
2022-09-22T09:05:39.068Z,39.24
2022-09-22T09:08:11.125Z,39.51
2022-09-22T09:10:45.186Z,39.77
2022-09-22T09:13:21.442Z,39.85
2022-09-22T09:15:59.771Z,40.02
2022-09-22T09:18:31.827Z,40.10
2022-09-22T09:20:59.547Z,40.25
2022-09-22T09:26:19.467Z,40.59
2022-09-22T09:28:48.494Z,41.01
2022-09-22T09:31:22.581Z,41.41
2022-09-22T09:33:55.218Z,41.73
2022-09-22T09:36:23.123Z,42.01
2022-09-22T09:38:53.122Z,41.96
2022-09-22T09:41:22.127Z,42.42
2022-09-22T09:43:53.151Z,42.89
2022-09-22T09:46:32.924Z,43.30
2022-09-22T09:49:06.213Z,43.47
2022-09-22T09:51:39.959Z,43.75
2022-09-22T09:54:12.992Z,43.81
2022-09-22T09:57:05.056Z,44.08
2022-09-22T09:59:50.126Z,44.09
2022-09-22T10:02:21.170Z,43.61
2022-09-22T10:04:52.117Z,44.22
2022-09-22T10:07:21.334Z,44.38
2022-09-22T10:09:49.851Z,44.38
2022-09-22T10:12:25.681Z,44.87
2022-09-22T10:14:54.037Z,44.90
2022-09-22T10:17:24.145Z,45.24
2022-09-22T10:19:51.831Z,45.76
2022-09-22T10:22:27.273Z,46.05
2022-09-22T10:24:57.107Z,46.01
2022-09-22T10:27:25.851Z,45.89
2022-09-22T10:30:24.081Z,46.18
2022-09-22T10:33:07.171Z,46.11
2022-09-22T10:36:09.452Z,46.38
2022-09-22T10:41:14.119Z,46.46
2022-09-22T10:43:45.385Z,46.57
2022-09-22T10:46:20.490Z,46.80
2022-09-22T10:48:50.351Z,47.38
2022-09-22T10:51:20.526Z,46.58
2022-09-22T10:53:56.484Z,46.12
2022-09-22T10:56:28.818Z,46.08
2022-09-22T10:59:15.835Z,46.22
2022-09-22T11:01:57.703Z,46.69
2022-09-22T11:04:37.218Z,46.61
2022-09-22T11:07:30.768Z,46.84
2022-09-22T11:10:17.295Z,47.38
2022-09-22T11:12:49.165Z,48.06
2022-09-22T11:15:33.296Z,47.97
2022-09-22T11:18:23.145Z,48.09
2022-09-22T11:20:53.981Z,48.65
2022-09-22T11:23:49.256Z,49.20
2022-09-22T11:26:43.623Z,49.45
2022-09-22T11:29:31.929Z,48.03
2022-09-22T11:32:02.648Z,47.60
2022-09-22T11:34:40.044Z,47.72
2022-09-22T11:37:26.547Z,48.29
2022-09-22T11:40:01.439Z,48.71
2022-09-22T11:42:32.511Z,49.28
2022-09-22T11:45:03.417Z,49.39
2022-09-22T11:47:45.268Z,49.15
2022-09-22T11:50:31.863Z,47.92
2022-09-22T11:53:22.291Z,46.39
2022-09-22T11:55:56.617Z,45.09
2022-09-22T11:58:26.997Z,44.81
2022-09-22T12:00:57.421Z,44.50
2022-09-22T12:03:27.826Z,43.13
2022-09-22T12:05:58.372Z,41.69
2022-09-22T12:08:30.241Z,39.54
2022-09-22T12:10:57.993Z,37.64
2022-09-22T12:13:28.117Z,36.00
2022-09-22T12:16:00.170Z,34.64
2022-09-22T12:18:32.252Z,33.69
2022-09-22T12:21:01.748Z,32.80
2022-09-22T12:23:51.352Z,32.38
2022-09-22T12:26:27.308Z,31.69
2022-09-22T12:28:55.006Z,30.79
2022-09-22T12:31:22.833Z,30.18
2022-09-22T12:33:51.223Z,29.60
2022-09-22T12:36:20.037Z,29.14
2022-09-22T12:38:49.942Z,28.61
2022-09-22T12:41:18.486Z,28.32
2022-09-22T12:43:47.374Z,28.08
2022-09-22T12:46:22.354Z,27.84
2022-09-22T12:48:50.151Z,27.71
2022-09-22T12:51:31.818Z,27.38
2022-09-22T12:54:33.801Z,27.41
2022-09-22T12:57:03.191Z,27.12
2022-09-22T13:00:07.385Z,27.05
2022-09-22T13:02:45.350Z,26.98
2022-09-22T13:05:33.455Z,27.05
2022-09-22T13:08:01.377Z,26.90
2022-09-22T13:10:59.961Z,26.95
2022-09-22T13:13:39.644Z,26.95
2022-09-22T13:16:34.458Z,26.87
2022-09-22T13:19:02.214Z,26.65
2022-09-22T13:21:30.869Z,26.52
2022-09-22T13:24:00.173Z,26.46
2022-09-22T13:26:29.769Z,26.34
2022-09-22T13:29:03.556Z,26.21
2022-09-22T13:31:36.974Z,25.93
2022-09-22T13:34:21.188Z,26.14
2022-09-22T13:36:48.929Z,25.82
2022-09-22T13:39:17.804Z,26.08
2022-09-22T13:41:47.575Z,25.93
2022-09-22T13:44:17.795Z,25.77
2022-09-22T13:46:46.534Z,25.37
2022-09-22T13:49:16.849Z,25.58
2022-09-22T13:51:44.777Z,25.43
2022-09-22T13:54:14.571Z,25.37
2022-09-22T13:56:42.256Z,25.28
2022-09-22T13:59:12.978Z,25.10
2022-09-22T14:01:48.177Z,25.09
2022-09-22T14:04:23.702Z,25.04
2022-09-22T14:06:51.557Z,24.61
2022-09-22T14:09:19.206Z,24.99
2022-09-22T14:11:47.857Z,24.99
2022-09-22T14:14:22.435Z,25.00
2022-09-22T14:16:52.100Z,24.93
2022-09-22T14:19:21.229Z,24.84
2022-09-22T14:21:50.957Z,24.68
2022-09-22T14:24:18.689Z,24.58
2022-09-22T14:26:46.817Z,24.79
2022-09-22T14:29:17.426Z,24.82
2022-09-22T14:31:46.577Z,24.86
2022-09-22T14:34:19.014Z,24.87
2022-09-22T14:36:46.748Z,24.88
2022-09-22T14:39:17.551Z,25.03
2022-09-22T14:41:51.181Z,25.00
2022-09-22T14:44:45.625Z,24.92
2022-09-22T14:47:27.376Z,24.41
2022-09-22T14:50:11.022Z,24.73
2022-09-22T14:52:40.518Z,24.70
2022-09-22T14:55:12.111Z,24.64
2022-09-22T14:57:39.702Z,24.50
2022-09-22T15:00:31.637Z,24.29
2022-09-22T15:02:59.266Z,24.51
2022-09-22T15:05:30.339Z,24.49
2022-09-22T15:08:10.151Z,24.36
2022-09-22T15:10:37.903Z,24.38
2022-09-22T15:13:19.752Z,24.39
2022-09-22T15:15:48.051Z,24.17
2022-09-22T15:18:19.144Z,24.20
2022-09-22T15:20:49.923Z,24.26
2022-09-22T15:23:20.001Z,24.29
2022-09-22T15:25:47.890Z,23.54
2022-09-22T15:28:16.641Z,24.12
2022-09-22T15:30:47.341Z,24.03
2022-09-22T15:33:15.463Z,24.01
2022-09-22T15:35:44.632Z,23.94
2022-09-22T15:38:19.185Z,23.99
2022-09-22T15:40:47.863Z,23.97
2022-09-22T15:43:19.172Z,23.58
2022-09-22T15:45:48.825Z,23.98
2022-09-22T15:48:30.148Z,23.95
2022-09-22T15:50:58.070Z,23.89
2022-09-22T15:53:30.268Z,23.83
2022-09-22T15:55:58.639Z,23.71
2022-09-22T15:58:26.277Z,23.68
2022-09-22T16:00:53.985Z,23.62
2022-09-22T16:03:23.777Z,23.49
2022-09-22T16:05:52.442Z,23.60
2022-09-22T16:08:22.396Z,23.47
2022-09-22T16:10:51.748Z,23.55
2022-09-22T16:13:19.988Z,23.55
2022-09-22T16:15:50.337Z,23.51
2022-09-22T16:18:18.072Z,23.47
2022-09-22T16:20:47.005Z,23.40
2022-09-22T16:23:14.796Z,23.33
2022-09-22T16:25:43.053Z,23.31
2022-09-22T16:28:12.275Z,23.25
2022-09-22T16:30:40.278Z,23.23
2022-09-22T16:33:08.010Z,23.14
2022-09-22T16:35:35.714Z,23.09
2022-09-22T16:38:03.484Z,23.04
2022-09-22T16:40:31.300Z,22.99
2022-09-22T16:42:59.295Z,22.69
2022-09-22T16:45:45.651Z,22.01
2022-09-22T16:48:14.314Z,21.55
2022-09-22T16:50:43.411Z,20.44
2022-09-22T16:53:13.572Z,21.96
2022-09-22T16:55:49.740Z,21.29
2022-09-22T16:58:17.841Z,21.85
2022-09-22T17:00:47.176Z,22.17
2022-09-22T17:03:15.235Z,21.34
2022-09-22T17:05:43.155Z,21.88
2022-09-22T17:08:11.581Z,22.22
2022-09-22T17:10:39.534Z,19.96
2022-09-22T17:13:08.085Z,20.30
2022-09-22T17:15:36.873Z,19.55
2022-09-22T17:18:06.739Z,21.35
2022-09-22T17:20:35.174Z,18.61
2022-09-22T17:23:03.236Z,21.58
2022-09-22T17:25:31.106Z,20.92
2022-09-22T17:27:59.191Z,20.06
2022-09-22T17:30:27.215Z,20.87
2022-09-22T17:32:55.942Z,20.38
2022-09-22T17:35:25.480Z,19.10
2022-09-22T17:37:58.681Z,20.91
2022-09-22T17:40:26.841Z,19.78
2022-09-22T17:42:56.342Z,20.67
2022-09-22T17:45:31.666Z,17.10
2022-09-22T17:48:17.129Z,20.45
2022-09-22T17:51:07.614Z,18.67
2022-09-22T17:53:53.172Z,18.87
2022-09-22T17:56:21.319Z,20.11
2022-09-22T17:58:49.436Z,19.76
2022-09-22T18:01:17.468Z,17.87
2022-09-22T18:04:15.059Z,19.83
2022-09-22T18:06:44.601Z,18.57
2022-09-22T18:09:12.611Z,19.01
2022-09-22T18:11:44.636Z,18.81
2022-09-22T18:14:12.528Z,17.41
2022-09-22T18:16:42.521Z,19.49
2022-09-22T18:19:10.868Z,16.31
2022-09-22T18:21:45.200Z,19.51
2022-09-22T18:24:19.581Z,19.47
2022-09-22T18:26:47.664Z,18.94
2022-09-22T18:29:17.234Z,18.59
2022-09-22T18:31:45.590Z,17.74
2022-09-22T18:34:14.280Z,18.05
2022-09-22T18:36:42.724Z,17.71
2022-09-22T18:39:11.034Z,17.20
2022-09-22T18:41:41.485Z,17.20
2022-09-22T18:44:09.531Z,16.73
2022-09-22T18:46:37.567Z,18.84
2022-09-22T18:49:06.527Z,17.35
2022-09-22T18:51:35.224Z,18.87
2022-09-22T18:54:08.462Z,17.80
2022-09-22T18:56:37.446Z,15.68
2022-09-22T18:59:08.447Z,17.93
2022-09-22T19:01:36.689Z,18.58
2022-09-22T19:04:05.397Z,17.23
2022-09-22T19:06:53.560Z,18.47
2022-09-22T19:09:21.801Z,17.35
2022-09-22T19:11:50.572Z,16.94
2022-09-22T19:14:21.184Z,16.52
2022-09-22T19:16:49.965Z,16.49
2022-09-22T19:19:18.805Z,16.72
2022-09-22T19:21:47.066Z,17.30
2022-09-22T19:24:15.078Z,16.10
2022-09-22T19:26:43.667Z,16.51
2022-09-22T19:29:12.062Z,16.99
2022-09-22T19:31:42.406Z,18.00
2022-09-22T19:34:10.617Z,15.92
2022-09-22T19:36:39.160Z,17.27
2022-09-22T19:39:08.629Z,17.10
2022-09-22T19:41:37.422Z,17.86
2022-09-22T19:44:05.693Z,15.18
2022-09-22T19:46:40.574Z,15.86
2022-09-22T19:49:10.309Z,16.21
2022-09-22T19:51:40.903Z,16.05
2022-09-22T19:54:09.454Z,17.68
2022-09-22T19:56:37.309Z,16.90
2022-09-22T19:59:07.275Z,16.50
2022-09-22T20:01:36.796Z,15.65
2022-09-22T20:04:05.058Z,17.39
2022-09-22T20:06:34.731Z,15.87
2022-09-22T20:09:03.808Z,16.70
2022-09-22T20:11:32.379Z,16.82
2022-09-22T20:14:17.804Z,15.79
2022-09-22T20:16:46.771Z,15.24
2022-09-22T20:19:15.013Z,16.14
2022-09-22T20:21:45.606Z,15.00
2022-09-22T20:24:14.323Z,13.25
2022-09-22T20:26:42.666Z,15.75
2022-09-22T20:29:11.025Z,14.82
2022-09-22T20:31:38.778Z,17.08
2022-09-22T20:34:06.927Z,14.64
2022-09-22T20:36:37.066Z,15.20
2022-09-22T20:39:08.274Z,14.99
2022-09-22T20:41:36.322Z,14.21
2022-09-22T20:44:04.245Z,15.88
2022-09-22T20:46:32.301Z,14.63
2022-09-22T20:49:00.180Z,14.00
2022-09-22T20:51:28.500Z,13.91
2022-09-22T20:53:56.409Z,13.92
2022-09-22T20:56:26.303Z,14.80
2022-09-22T20:58:54.152Z,15.55
2022-09-22T21:01:23.100Z,14.46
2022-09-22T21:03:51.095Z,14.81
2022-09-22T21:06:18.979Z,16.67
2022-09-22T21:09:03.995Z,15.20
2022-09-22T21:11:33.543Z,15.88
2022-09-22T21:14:04.089Z,15.76
2022-09-22T21:16:32.180Z,15.37
2022-09-22T21:19:02.273Z,16.58
2022-09-22T21:21:31.039Z,16.56
2022-09-22T21:24:01.953Z,15.81
2022-09-22T21:26:30.205Z,15.91
2022-09-22T21:28:59.812Z,13.49
2022-09-22T21:31:27.839Z,14.27
2022-09-22T21:33:55.813Z,14.31
2022-09-22T21:36:24.030Z,13.54
2022-09-22T21:38:55.735Z,16.40
2022-09-22T21:41:24.533Z,15.36
2022-09-22T21:43:52.373Z,16.38
2022-09-22T21:46:22.369Z,13.85
2022-09-22T21:48:50.262Z,16.10
2022-09-22T21:51:19.394Z,15.03
2022-09-22T21:53:47.462Z,16.30
2022-09-22T21:56:16.543Z,15.82
2022-09-22T21:58:45.100Z,15.15
2022-09-22T22:01:13.796Z,14.19
2022-09-22T22:03:43.698Z,15.44
2022-09-22T22:06:13.421Z,14.21
2022-09-22T22:08:42.875Z,14.27
2022-09-22T22:11:11.673Z,16.18
2022-09-22T22:13:39.978Z,13.74
2022-09-22T22:16:08.546Z,16.12
2022-09-22T22:18:36.677Z,16.13
2022-09-22T22:21:06.872Z,13.92
2022-09-22T22:23:36.216Z,15.55
2022-09-22T22:26:05.466Z,14.40
2022-09-22T22:28:33.831Z,13.40
2022-09-22T22:31:03.829Z,13.60
2022-09-22T22:33:32.538Z,15.85
2022-09-22T22:36:01.337Z,13.67
2022-09-22T22:38:31.105Z,14.36
2022-09-22T22:41:03.414Z,12.11
2022-09-22T22:46:05.984Z,15.86
2022-09-22T22:48:35.687Z,15.83
2022-09-22T22:51:07.660Z,15.80
2022-09-22T22:53:37.355Z,15.72
2022-09-22T22:56:06.152Z,15.76
2022-09-22T22:58:35.208Z,15.73
2022-09-22T23:01:03.249Z,15.68
2022-09-22T23:03:31.078Z,15.68
2022-09-22T23:05:59.351Z,15.63
2022-09-22T23:08:27.313Z,15.60
2022-09-22T23:11:04.233Z,15.61
2022-09-22T23:13:32.101Z,15.60
2022-09-22T23:16:04.669Z,15.58
2022-09-22T23:18:33.972Z,15.58
2022-09-22T23:21:02.012Z,15.57
2022-09-22T23:23:29.838Z,15.55
2022-09-22T23:25:57.470Z,15.54
2022-09-22T23:28:26.654Z,15.53
2022-09-22T23:30:58.536Z,15.52
2022-09-22T23:33:27.064Z,15.52
2022-09-22T23:35:55.669Z,15.51
2022-09-22T23:38:23.623Z,15.40
2022-09-22T23:40:51.433Z,15.48
2022-09-22T23:43:19.251Z,15.48
2022-09-22T23:45:48.282Z,15.48
2022-09-22T23:48:18.304Z,15.46
2022-09-22T23:50:46.128Z,15.47
2022-09-22T23:53:13.731Z,15.42
2022-09-22T23:55:41.438Z,15.44
2022-09-22T23:58:09.238Z,15.45
